sensor_id;sensor_type;location;lat;lon;timestamp;P1;durP1;ratioP1;P2;durP2;ratioP2
27833;SDS011;15200;50.570;7.244;2023-06-22T00:01:18;11.05;;;5.67;;
27833;SDS011;15200;50.570;7.244;2023-06-22T00:03:46;5.60;;;5.10;;
27833;SDS011;15200;50.570;7.244;2023-06-22T00:06:13;9.55;;;6.33;;
27833;SDS011;15200;50.570;7.244;2023-06-22T00:08:40;5.97;;;5.40;;
27833;SDS011;15200;50.570;7.244;2023-06-22T00:11:07;8.00;;;5.53;;
27833;SDS011;15200;50.570;7.244;2023-06-22T00:13:35;5.92;;;5.20;;
27833;SDS011;15200;50.570;7.244;2023-06-22T00:16:02;5.85;;;5.17;;
27833;SDS011;15200;50.570;7.244;2023-06-22T00:18:29;5.70;;;5.20;;
27833;SDS011;15200;50.570;7.244;2023-06-22T00:20:58;7.28;;;5.58;;
27833;SDS011;15200;50.570;7.244;2023-06-22T00:23:25;7.75;;;5.50;;
27833;SDS011;15200;50.570;7.244;2023-06-22T00:25:53;8.53;;;5.85;;
27833;SDS011;15200;50.570;7.244;2023-06-22T00:28:20;5.97;;;5.37;;
27833;SDS011;15200;50.570;7.244;2023-06-22T00:30:48;6.25;;;5.25;;
27833;SDS011;15200;50.570;7.244;2023-06-22T00:33:15;6.00;;;5.37;;
27833;SDS011;15200;50.570;7.244;2023-06-22T00:35:43;6.20;;;5.30;;
27833;SDS011;15200;50.570;7.244;2023-06-22T00:38:10;6.12;;;5.53;;
27833;SDS011;15200;50.570;7.244;2023-06-22T00:40:38;6.03;;;5.45;;
27833;SDS011;15200;50.570;7.244;2023-06-22T00:43:05;7.35;;;4.80;;
27833;SDS011;15200;50.570;7.244;2023-06-22T00:45:32;6.05;;;5.45;;
27833;SDS011;15200;50.570;7.244;2023-06-22T00:48:00;5.83;;;5.22;;
27833;SDS011;15200;50.570;7.244;2023-06-22T00:50:28;6.00;;;5.40;;
27833;SDS011;15200;50.570;7.244;2023-06-22T00:52:58;9.10;;;5.60;;
27833;SDS011;15200;50.570;7.244;2023-06-22T00:55:26;6.00;;;5.00;;
27833;SDS011;15200;50.570;7.244;2023-06-22T00:57:54;10.32;;;5.37;;
27833;SDS011;15200;50.570;7.244;2023-06-22T01:00:22;6.72;;;5.03;;
27833;SDS011;15200;50.570;7.244;2023-06-22T01:02:51;9.03;;;5.55;;
27833;SDS011;15200;50.570;7.244;2023-06-22T01:05:22;6.92;;;4.92;;
27833;SDS011;15200;50.570;7.244;2023-06-22T01:08:00;5.75;;;5.15;;
27833;SDS011;15200;50.570;7.244;2023-06-22T01:10:30;7.05;;;5.55;;
27833;SDS011;15200;50.570;7.244;2023-06-22T01:12:58;5.67;;;4.75;;
27833;SDS011;15200;50.570;7.244;2023-06-22T01:15:28;5.72;;;5.12;;
27833;SDS011;15200;50.570;7.244;2023-06-22T01:18:16;5.87;;;5.28;;
27833;SDS011;15200;50.570;7.244;2023-06-22T01:20:44;5.72;;;5.17;;
27833;SDS011;15200;50.570;7.244;2023-06-22T01:23:17;5.90;;;5.15;;
27833;SDS011;15200;50.570;7.244;2023-06-22T01:25:45;6.35;;;5.45;;
27833;SDS011;15200;50.570;7.244;2023-06-22T01:28:17;7.53;;;5.60;;
27833;SDS011;15200;50.570;7.244;2023-06-22T01:30:42;5.87;;;5.35;;
27833;SDS011;15200;50.570;7.244;2023-06-22T01:33:10;7.05;;;5.75;;
27833;SDS011;15200;50.570;7.244;2023-06-22T01:35:38;6.50;;;5.87;;
27833;SDS011;15200;50.570;7.244;2023-06-22T01:38:05;8.08;;;6.25;;
27833;SDS011;15200;50.570;7.244;2023-06-22T01:40:33;6.00;;;5.40;;
27833;SDS011;15200;50.570;7.244;2023-06-22T01:43:01;5.95;;;5.45;;
27833;SDS011;15200;50.570;7.244;2023-06-22T01:45:29;6.55;;;5.80;;
27833;SDS011;15200;50.570;7.244;2023-06-22T01:47:57;6.47;;;5.42;;
27833;SDS011;15200;50.570;7.244;2023-06-22T01:50:24;6.33;;;5.40;;
27833;SDS011;15200;50.570;7.244;2023-06-22T01:52:51;7.33;;;5.37;;
27833;SDS011;15200;50.570;7.244;2023-06-22T01:55:19;6.10;;;5.60;;
27833;SDS011;15200;50.570;7.244;2023-06-22T01:57:46;6.60;;;5.72;;
27833;SDS011;15200;50.570;7.244;2023-06-22T02:00:14;6.10;;;5.50;;
27833;SDS011;15200;50.570;7.244;2023-06-22T02:02:52;9.20;;;5.80;;
27833;SDS011;15200;50.570;7.244;2023-06-22T02:05:20;6.28;;;5.67;;
27833;SDS011;15200;50.570;7.244;2023-06-22T02:07:53;6.10;;;5.42;;
27833;SDS011;15200;50.570;7.244;2023-06-22T02:10:21;6.55;;;5.85;;
27833;SDS011;15200;50.570;7.244;2023-06-22T02:12:48;9.38;;;6.15;;
27833;SDS011;15200;50.570;7.244;2023-06-22T02:15:17;7.37;;;6.30;;
27833;SDS011;15200;50.570;7.244;2023-06-22T02:17:44;6.78;;;6.08;;
27833;SDS011;15200;50.570;7.244;2023-06-22T02:20:12;9.08;;;5.50;;
27833;SDS011;15200;50.570;7.244;2023-06-22T02:22:40;7.60;;;5.60;;
27833;SDS011;15200;50.570;7.244;2023-06-22T02:25:07;5.72;;;5.22;;
27833;SDS011;15200;50.570;7.244;2023-06-22T02:27:35;6.55;;;5.67;;
27833;SDS011;15200;50.570;7.244;2023-06-22T02:30:03;6.95;;;5.78;;
27833;SDS011;15200;50.570;7.244;2023-06-22T02:32:30;7.87;;;5.92;;
27833;SDS011;15200;50.570;7.244;2023-06-22T02:34:59;8.93;;;5.97;;
27833;SDS011;15200;50.570;7.244;2023-06-22T02:37:28;9.30;;;6.37;;
27833;SDS011;15200;50.570;7.244;2023-06-22T02:39:56;7.78;;;5.85;;
27833;SDS011;15200;50.570;7.244;2023-06-22T02:42:23;8.25;;;6.00;;
27833;SDS011;15200;50.570;7.244;2023-06-22T02:44:50;6.95;;;6.08;;
27833;SDS011;15200;50.570;7.244;2023-06-22T02:47:18;7.83;;;6.90;;
27833;SDS011;15200;50.570;7.244;2023-06-22T02:49:45;7.85;;;6.47;;
27833;SDS011;15200;50.570;7.244;2023-06-22T02:52:12;6.15;;;5.55;;
27833;SDS011;15200;50.570;7.244;2023-06-22T02:54:40;6.90;;;6.20;;
27833;SDS011;15200;50.570;7.244;2023-06-22T02:57:07;10.75;;;5.80;;
27833;SDS011;15200;50.570;7.244;2023-06-22T02:59:36;8.68;;;6.10;;
27833;SDS011;15200;50.570;7.244;2023-06-22T03:02:05;6.78;;;6.08;;
27833;SDS011;15200;50.570;7.244;2023-06-22T03:04:33;6.72;;;6.12;;
27833;SDS011;15200;50.570;7.244;2023-06-22T03:07:00;6.72;;;6.05;;
27833;SDS011;15200;50.570;7.244;2023-06-22T03:09:28;7.65;;;5.70;;
27833;SDS011;15200;50.570;7.244;2023-06-22T03:11:55;6.25;;;5.62;;
27833;SDS011;15200;50.570;7.244;2023-06-22T03:14:22;7.37;;;6.67;;
27833;SDS011;15200;50.570;7.244;2023-06-22T03:16:50;6.85;;;6.17;;
27833;SDS011;15200;50.570;7.244;2023-06-22T03:19:17;7.47;;;6.28;;
27833;SDS011;15200;50.570;7.244;2023-06-22T03:21:45;7.60;;;6.90;;
27833;SDS011;15200;50.570;7.244;2023-06-22T03:24:13;6.85;;;5.83;;
27833;SDS011;15200;50.570;7.244;2023-06-22T03:26:40;6.60;;;6.00;;
27833;SDS011;15200;50.570;7.244;2023-06-22T03:29:07;7.70;;;6.67;;
27833;SDS011;15200;50.570;7.244;2023-06-22T03:31:35;6.75;;;6.05;;
27833;SDS011;15200;50.570;7.244;2023-06-22T03:34:02;8.90;;;6.53;;
27833;SDS011;15200;50.570;7.244;2023-06-22T03:36:29;6.62;;;5.75;;
27833;SDS011;15200;50.570;7.244;2023-06-22T03:38:56;8.85;;;6.65;;
27833;SDS011;15200;50.570;7.244;2023-06-22T03:41:24;6.28;;;5.67;;
27833;SDS011;15200;50.570;7.244;2023-06-22T03:43:51;7.70;;;5.67;;
27833;SDS011;15200;50.570;7.244;2023-06-22T03:46:19;7.75;;;5.47;;
27833;SDS011;15200;50.570;7.244;2023-06-22T03:48:46;7.70;;;5.92;;
27833;SDS011;15200;50.570;7.244;2023-06-22T03:51:13;7.78;;;5.60;;
27833;SDS011;15200;50.570;7.244;2023-06-22T03:53:41;7.53;;;5.55;;
27833;SDS011;15200;50.570;7.244;2023-06-22T03:56:08;6.75;;;5.62;;
27833;SDS011;15200;50.570;7.244;2023-06-22T03:58:35;5.42;;;4.92;;
27833;SDS011;15200;50.570;7.244;2023-06-22T04:01:04;6.08;;;5.30;;
27833;SDS011;15200;50.570;7.244;2023-06-22T04:03:32;6.55;;;5.62;;
27833;SDS011;15200;50.570;7.244;2023-06-22T04:06:00;7.67;;;4.87;;
27833;SDS011;15200;50.570;7.244;2023-06-22T04:08:27;6.53;;;5.10;;
27833;SDS011;15200;50.570;7.244;2023-06-22T04:10:54;5.85;;;5.10;;
27833;SDS011;15200;50.570;7.244;2023-06-22T04:13:22;6.92;;;5.40;;
27833;SDS011;15200;50.570;7.244;2023-06-22T04:15:49;7.10;;;5.58;;
27833;SDS011;15200;50.570;7.244;2023-06-22T04:18:16;6.45;;;4.97;;
27833;SDS011;15200;50.570;7.244;2023-06-22T04:20:43;8.53;;;5.45;;
27833;SDS011;15200;50.570;7.244;2023-06-22T04:23:13;8.25;;;5.47;;
27833;SDS011;15200;50.570;7.244;2023-06-22T04:25:40;6.60;;;5.40;;
27833;SDS011;15200;50.570;7.244;2023-06-22T04:28:07;7.17;;;5.67;;
27833;SDS011;15200;50.570;7.244;2023-06-22T04:30:36;7.10;;;4.87;;
27833;SDS011;15200;50.570;7.244;2023-06-22T04:33:05;5.70;;;5.10;;
27833;SDS011;15200;50.570;7.244;2023-06-22T04:35:32;7.42;;;5.50;;
27833;SDS011;15200;50.570;7.244;2023-06-22T04:38:00;6.70;;;5.20;;
27833;SDS011;15200;50.570;7.244;2023-06-22T04:40:27;7.85;;;5.17;;
27833;SDS011;15200;50.570;7.244;2023-06-22T04:42:54;12.00;;;5.00;;
27833;SDS011;15200;50.570;7.244;2023-06-22T04:45:22;6.40;;;5.42;;
27833;SDS011;15200;50.570;7.244;2023-06-22T04:47:49;9.53;;;6.03;;
27833;SDS011;15200;50.570;7.244;2023-06-22T04:50:16;9.63;;;5.58;;
27833;SDS011;15200;50.570;7.244;2023-06-22T04:52:44;6.97;;;6.28;;
27833;SDS011;15200;50.570;7.244;2023-06-22T04:55:11;8.85;;;5.45;;
27833;SDS011;15200;50.570;7.244;2023-06-22T04:57:39;7.12;;;5.70;;
27833;SDS011;15200;50.570;7.244;2023-06-22T05:00:06;6.47;;;5.60;;
27833;SDS011;15200;50.570;7.244;2023-06-22T05:02:41;8.10;;;5.53;;
27833;SDS011;15200;50.570;7.244;2023-06-22T05:05:08;7.65;;;5.05;;
27833;SDS011;15200;50.570;7.244;2023-06-22T05:07:37;7.50;;;5.42;;
27833;SDS011;15200;50.570;7.244;2023-06-22T05:10:06;8.55;;;6.03;;
27833;SDS011;15200;50.570;7.244;2023-06-22T05:12:33;7.67;;;5.95;;
27833;SDS011;15200;50.570;7.244;2023-06-22T05:15:01;8.38;;;6.03;;
27833;SDS011;15200;50.570;7.244;2023-06-22T05:17:28;6.12;;;5.53;;
27833;SDS011;15200;50.570;7.244;2023-06-22T05:19:55;6.78;;;5.85;;
27833;SDS011;15200;50.570;7.244;2023-06-22T05:22:23;6.75;;;6.05;;
27833;SDS011;15200;50.570;7.244;2023-06-22T05:24:50;8.25;;;5.90;;
27833;SDS011;15200;50.570;7.244;2023-06-22T05:27:17;7.45;;;6.47;;
27833;SDS011;15200;50.570;7.244;2023-06-22T05:29:45;6.65;;;6.05;;
27833;SDS011;15200;50.570;7.244;2023-06-22T05:32:12;6.83;;;5.83;;
27833;SDS011;15200;50.570;7.244;2023-06-22T05:34:39;6.45;;;5.60;;
27833;SDS011;15200;50.570;7.244;2023-06-22T05:37:07;8.28;;;5.70;;
27833;SDS011;15200;50.570;7.244;2023-06-22T05:39:35;7.30;;;5.67;;
27833;SDS011;15200;50.570;7.244;2023-06-22T05:42:06;7.62;;;5.97;;
27833;SDS011;15200;50.570;7.244;2023-06-22T05:44:34;6.37;;;5.60;;
27833;SDS011;15200;50.570;7.244;2023-06-22T05:47:01;8.50;;;6.17;;
27833;SDS011;15200;50.570;7.244;2023-06-22T05:49:29;8.83;;;6.10;;
27833;SDS011;15200;50.570;7.244;2023-06-22T05:51:58;6.12;;;5.55;;
27833;SDS011;15200;50.570;7.244;2023-06-22T05:54:29;6.62;;;5.62;;
27833;SDS011;15200;50.570;7.244;2023-06-22T05:56:56;8.30;;;6.25;;
27833;SDS011;15200;50.570;7.244;2023-06-22T05:59:24;6.67;;;5.97;;
27833;SDS011;15200;50.570;7.244;2023-06-22T06:01:51;7.47;;;6.08;;
27833;SDS011;15200;50.570;7.244;2023-06-22T06:04:18;6.87;;;6.10;;
27833;SDS011;15200;50.570;7.244;2023-06-22T06:06:46;8.38;;;6.35;;
27833;SDS011;15200;50.570;7.244;2023-06-22T06:09:14;7.00;;;6.30;;
27833;SDS011;15200;50.570;7.244;2023-06-22T06:11:41;8.23;;;6.25;;
27833;SDS011;15200;50.570;7.244;2023-06-22T06:14:09;7.17;;;6.17;;
27833;SDS011;15200;50.570;7.244;2023-06-22T06:16:36;11.60;;;6.78;;
27833;SDS011;15200;50.570;7.244;2023-06-22T06:19:03;7.47;;;6.50;;
27833;SDS011;15200;50.570;7.244;2023-06-22T06:21:30;10.13;;;6.72;;
27833;SDS011;15200;50.570;7.244;2023-06-22T06:23:58;7.55;;;5.87;;
27833;SDS011;15200;50.570;7.244;2023-06-22T06:26:25;7.80;;;6.65;;
27833;SDS011;15200;50.570;7.244;2023-06-22T06:28:57;8.85;;;6.72;;
27833;SDS011;15200;50.570;7.244;2023-06-22T06:31:25;7.12;;;6.53;;
27833;SDS011;15200;50.570;7.244;2023-06-22T06:33:54;7.62;;;6.92;;
27833;SDS011;15200;50.570;7.244;2023-06-22T06:36:21;9.65;;;6.53;;
27833;SDS011;15200;50.570;7.244;2023-06-22T06:38:49;6.40;;;5.53;;
27833;SDS011;15200;50.570;7.244;2023-06-22T06:41:16;8.43;;;6.50;;
27833;SDS011;15200;50.570;7.244;2023-06-22T06:43:43;10.03;;;6.67;;
27833;SDS011;15200;50.570;7.244;2023-06-22T06:46:11;6.60;;;6.00;;
27833;SDS011;15200;50.570;7.244;2023-06-22T06:48:38;6.83;;;6.12;;
27833;SDS011;15200;50.570;7.244;2023-06-22T06:51:06;6.85;;;6.15;;
27833;SDS011;15200;50.570;7.244;2023-06-22T06:53:35;11.05;;;6.37;;
27833;SDS011;15200;50.570;7.244;2023-06-22T06:56:03;11.03;;;6.78;;
27833;SDS011;15200;50.570;7.244;2023-06-22T06:58:31;11.38;;;6.58;;
27833;SDS011;15200;50.570;7.244;2023-06-22T07:00:59;9.03;;;6.78;;
27833;SDS011;15200;50.570;7.244;2023-06-22T07:03:26;8.13;;;6.53;;
27833;SDS011;15200;50.570;7.244;2023-06-22T07:05:53;7.53;;;6.80;;
27833;SDS011;15200;50.570;7.244;2023-06-22T07:08:21;8.68;;;6.12;;
27833;SDS011;15200;50.570;7.244;2023-06-22T07:10:48;7.50;;;6.05;;
27833;SDS011;15200;50.570;7.244;2023-06-22T07:13:15;7.50;;;6.42;;
27833;SDS011;15200;50.570;7.244;2023-06-22T07:15:42;8.58;;;6.70;;
27833;SDS011;15200;50.570;7.244;2023-06-22T07:18:10;7.95;;;5.90;;
27833;SDS011;15200;50.570;7.244;2023-06-22T07:20:37;10.98;;;6.42;;
27833;SDS011;15200;50.570;7.244;2023-06-22T07:23:05;6.95;;;5.97;;
27833;SDS011;15200;50.570;7.244;2023-06-22T07:25:33;10.45;;;6.62;;
27833;SDS011;15200;50.570;7.244;2023-06-22T07:28:03;9.35;;;6.80;;
27833;SDS011;15200;50.570;7.244;2023-06-22T07:30:31;8.08;;;6.58;;
27833;SDS011;15200;50.570;7.244;2023-06-22T07:32:59;8.38;;;6.45;;
27833;SDS011;15200;50.570;7.244;2023-06-22T07:35:33;7.75;;;6.65;;
27833;SDS011;15200;50.570;7.244;2023-06-22T07:37:58;7.15;;;6.45;;
27833;SDS011;15200;50.570;7.244;2023-06-22T07:40:25;9.48;;;6.55;;
27833;SDS011;15200;50.570;7.244;2023-06-22T07:42:52;7.45;;;5.87;;
27833;SDS011;15200;50.570;7.244;2023-06-22T07:45:20;8.03;;;6.33;;
27833;SDS011;15200;50.570;7.244;2023-06-22T07:47:47;6.90;;;6.17;;
27833;SDS011;15200;50.570;7.244;2023-06-22T07:50:14;6.85;;;6.00;;
27833;SDS011;15200;50.570;7.244;2023-06-22T07:52:42;8.08;;;6.72;;
27833;SDS011;15200;50.570;7.244;2023-06-22T07:55:09;7.53;;;6.78;;
27833;SDS011;15200;50.570;7.244;2023-06-22T07:57:36;6.58;;;5.92;;
27833;SDS011;15200;50.570;7.244;2023-06-22T08:00:04;9.85;;;6.20;;
27833;SDS011;15200;50.570;7.244;2023-06-22T08:02:33;11.20;;;6.30;;
27833;SDS011;15200;50.570;7.244;2023-06-22T08:05:01;7.45;;;6.60;;
27833;SDS011;15200;50.570;7.244;2023-06-22T08:07:28;7.50;;;6.70;;
27833;SDS011;15200;50.570;7.244;2023-06-22T08:09:55;8.98;;;6.83;;
27833;SDS011;15200;50.570;7.244;2023-06-22T08:12:23;11.10;;;7.17;;
27833;SDS011;15200;50.570;7.244;2023-06-22T08:14:50;7.90;;;6.80;;
27833;SDS011;15200;50.570;7.244;2023-06-22T08:17:17;8.03;;;7.08;;
27833;SDS011;15200;50.570;7.244;2023-06-22T08:19:45;9.48;;;6.45;;
27833;SDS011;15200;50.570;7.244;2023-06-22T08:22:12;8.88;;;7.00;;
27833;SDS011;15200;50.570;7.244;2023-06-22T08:24:39;10.15;;;6.75;;
27833;SDS011;15200;50.570;7.244;2023-06-22T08:27:07;7.05;;;6.40;;
27833;SDS011;15200;50.570;7.244;2023-06-22T08:29:36;7.83;;;6.22;;
27833;SDS011;15200;50.570;7.244;2023-06-22T08:32:03;7.42;;;6.60;;
27833;SDS011;15200;50.570;7.244;2023-06-22T08:34:31;7.50;;;6.60;;
27833;SDS011;15200;50.570;7.244;2023-06-22T08:36:58;7.65;;;6.28;;
27833;SDS011;15200;50.570;7.244;2023-06-22T08:39:25;7.22;;;6.62;;
27833;SDS011;15200;50.570;7.244;2023-06-22T08:41:54;10.38;;;6.37;;
27833;SDS011;15200;50.570;7.244;2023-06-22T08:44:21;8.13;;;6.30;;
27833;SDS011;15200;50.570;7.244;2023-06-22T08:46:48;7.15;;;6.20;;
27833;SDS011;15200;50.570;7.244;2023-06-22T08:49:16;9.50;;;6.67;;
27833;SDS011;15200;50.570;7.244;2023-06-22T08:51:43;7.03;;;6.33;;
27833;SDS011;15200;50.570;7.244;2023-06-22T08:54:11;6.87;;;6.28;;
27833;SDS011;15200;50.570;7.244;2023-06-22T08:56:39;8.20;;;6.40;;
27833;SDS011;15200;50.570;7.244;2023-06-22T08:59:06;7.75;;;6.72;;
27833;SDS011;15200;50.570;7.244;2023-06-22T09:01:34;7.53;;;6.78;;
27833;SDS011;15200;50.570;7.244;2023-06-22T09:04:01;7.72;;;6.12;;
27833;SDS011;15200;50.570;7.244;2023-06-22T09:06:30;6.55;;;5.85;;
27833;SDS011;15200;50.570;7.244;2023-06-22T09:08:58;9.78;;;6.75;;
27833;SDS011;15200;50.570;7.244;2023-06-22T09:11:28;8.48;;;6.87;;
27833;SDS011;15200;50.570;7.244;2023-06-22T09:13:55;7.35;;;6.65;;
27833;SDS011;15200;50.570;7.244;2023-06-22T09:16:23;9.93;;;6.80;;
27833;SDS011;15200;50.570;7.244;2023-06-22T09:18:50;7.17;;;6.45;;
27833;SDS011;15200;50.570;7.244;2023-06-22T09:21:17;9.65;;;6.97;;
27833;SDS011;15200;50.570;7.244;2023-06-22T09:23:45;6.37;;;5.78;;
27833;SDS011;15200;50.570;7.244;2023-06-22T09:26:14;6.80;;;6.20;;
27833;SDS011;15200;50.570;7.244;2023-06-22T09:28:41;7.17;;;6.47;;
27833;SDS011;15200;50.570;7.244;2023-06-22T09:31:08;10.23;;;6.97;;
27833;SDS011;15200;50.570;7.244;2023-06-22T09:33:36;7.12;;;6.17;;
27833;SDS011;15200;50.570;7.244;2023-06-22T09:36:05;7.37;;;6.65;;
27833;SDS011;15200;50.570;7.244;2023-06-22T09:38:36;7.97;;;6.15;;
27833;SDS011;15200;50.570;7.244;2023-06-22T09:41:03;6.40;;;5.83;;
27833;SDS011;15200;50.570;7.244;2023-06-22T09:43:31;11.70;;;6.72;;
27833;SDS011;15200;50.570;7.244;2023-06-22T09:46:01;7.92;;;6.42;;
27833;SDS011;15200;50.570;7.244;2023-06-22T09:48:28;8.78;;;7.05;;
27833;SDS011;15200;50.570;7.244;2023-06-22T09:50:56;7.15;;;5.87;;
27833;SDS011;15200;50.570;7.244;2023-06-22T09:53:24;8.40;;;6.92;;
27833;SDS011;15200;50.570;7.244;2023-06-22T09:55:51;8.93;;;6.87;;
27833;SDS011;15200;50.570;7.244;2023-06-22T09:58:18;8.13;;;6.37;;
27833;SDS011;15200;50.570;7.244;2023-06-22T10:00:45;8.13;;;6.83;;
27833;SDS011;15200;50.570;7.244;2023-06-22T10:03:13;8.00;;;6.95;;
27833;SDS011;15200;50.570;7.244;2023-06-22T10:05:40;10.30;;;7.22;;
27833;SDS011;15200;50.570;7.244;2023-06-22T10:08:08;7.85;;;6.47;;
27833;SDS011;15200;50.570;7.244;2023-06-22T10:10:36;9.53;;;6.80;;
27833;SDS011;15200;50.570;7.244;2023-06-22T10:13:10;8.78;;;6.80;;
27833;SDS011;15200;50.570;7.244;2023-06-22T10:15:38;7.92;;;7.22;;
27833;SDS011;15200;50.570;7.244;2023-06-22T10:18:05;8.78;;;7.35;;
27833;SDS011;15200;50.570;7.244;2023-06-22T10:20:33;14.63;;;7.72;;
27833;SDS011;15200;50.570;7.244;2023-06-22T10:23:00;9.70;;;7.17;;
27833;SDS011;15200;50.570;7.244;2023-06-22T10:25:27;8.60;;;7.45;;
27833;SDS011;15200;50.570;7.244;2023-06-22T10:27:55;8.93;;;7.28;;
27833;SDS011;15200;50.570;7.244;2023-06-22T10:30:22;8.88;;;7.97;;
27833;SDS011;15200;50.570;7.244;2023-06-22T10:32:49;8.88;;;7.47;;
27833;SDS011;15200;50.570;7.244;2023-06-22T10:35:17;12.33;;;8.55;;
27833;SDS011;15200;50.570;7.244;2023-06-22T10:37:44;11.28;;;7.78;;
27833;SDS011;15200;50.570;7.244;2023-06-22T10:40:13;9.63;;;8.33;;
27833;SDS011;15200;50.570;7.244;2023-06-22T10:42:41;9.03;;;8.23;;
27833;SDS011;15200;50.570;7.244;2023-06-22T10:45:08;13.22;;;8.60;;
27833;SDS011;15200;50.570;7.244;2023-06-22T10:47:36;18.77;;;10.45;;
27833;SDS011;15200;50.570;7.244;2023-06-22T10:50:03;14.83;;;10.80;;
27833;SDS011;15200;50.570;7.244;2023-06-22T10:52:31;15.08;;;11.53;;
27833;SDS011;15200;50.570;7.244;2023-06-22T10:54:58;13.60;;;11.90;;
27833;SDS011;15200;50.570;7.244;2023-06-22T10:57:27;27.95;;;14.80;;
27833;SDS011;15200;50.570;7.244;2023-06-22T10:59:54;26.85;;;13.95;;
27833;SDS011;15200;50.570;7.244;2023-06-22T11:02:21;25.95;;;15.93;;
27833;SDS011;15200;50.570;7.244;2023-06-22T11:04:49;24.32;;;14.40;;
27833;SDS011;15200;50.570;7.244;2023-06-22T11:07:16;23.62;;;14.28;;
27833;SDS011;15200;50.570;7.244;2023-06-22T11:09:43;20.35;;;14.73;;
27833;SDS011;15200;50.570;7.244;2023-06-22T11:12:11;26.15;;;16.80;;
27833;SDS011;15200;50.570;7.244;2023-06-22T11:14:38;20.40;;;15.53;;
27833;SDS011;15200;50.570;7.244;2023-06-22T11:17:06;23.67;;;17.45;;
27833;SDS011;15200;50.570;7.244;2023-06-22T11:19:33;19.02;;;17.00;;
27833;SDS011;15200;50.570;7.244;2023-06-22T11:22:00;16.55;;;14.90;;
27833;SDS011;15200;50.570;7.244;2023-06-22T11:24:28;13.53;;;12.18;;
27833;SDS011;15200;50.570;7.244;2023-06-22T11:26:55;13.03;;;11.48;;
27833;SDS011;15200;50.570;7.244;2023-06-22T11:29:22;8.08;;;6.87;;
27833;SDS011;15200;50.570;7.244;2023-06-22T11:31:50;7.83;;;7.03;;
27833;SDS011;15200;50.570;7.244;2023-06-22T11:34:17;5.75;;;3.37;;
27833;SDS011;15200;50.570;7.244;2023-06-22T11:36:45;6.12;;;3.42;;
27833;SDS011;15200;50.570;7.244;2023-06-22T11:39:14;8.63;;;3.47;;
27833;SDS011;15200;50.570;7.244;2023-06-22T11:41:41;5.65;;;2.98;;
27833;SDS011;15200;50.570;7.244;2023-06-22T11:44:08;4.40;;;3.02;;
27833;SDS011;15200;50.570;7.244;2023-06-22T11:46:36;12.65;;;2.70;;
27833;SDS011;15200;50.570;7.244;2023-06-22T11:49:03;6.72;;;3.85;;
27833;SDS011;15200;50.570;7.244;2023-06-22T11:51:31;5.85;;;3.37;;
27833;SDS011;15200;50.570;7.244;2023-06-22T11:53:58;7.28;;;3.80;;
27833;SDS011;15200;50.570;7.244;2023-06-22T11:56:26;5.83;;;3.83;;
27833;SDS011;15200;50.570;7.244;2023-06-22T11:58:54;6.90;;;3.52;;
27833;SDS011;15200;50.570;7.244;2023-06-22T12:01:21;5.22;;;3.98;;
27833;SDS011;15200;50.570;7.244;2023-06-22T12:03:49;7.50;;;4.22;;
27833;SDS011;15200;50.570;7.244;2023-06-22T12:06:17;4.60;;;4.20;;
27833;SDS011;15200;50.570;7.244;2023-06-22T12:08:44;6.35;;;4.35;;
27833;SDS011;15200;50.570;7.244;2023-06-22T12:11:11;5.55;;;4.80;;
27833;SDS011;15200;50.570;7.244;2023-06-22T12:13:39;6.75;;;4.22;;
27833;SDS011;15200;50.570;7.244;2023-06-22T12:16:06;5.42;;;3.98;;
27833;SDS011;15200;50.570;7.244;2023-06-22T12:18:34;5.08;;;4.47;;
27833;SDS011;15200;50.570;7.244;2023-06-22T12:21:01;6.92;;;4.40;;
27833;SDS011;15200;50.570;7.244;2023-06-22T12:23:28;7.53;;;4.62;;
27833;SDS011;15200;50.570;7.244;2023-06-22T12:25:55;7.70;;;4.62;;
27833;SDS011;15200;50.570;7.244;2023-06-22T12:28:23;6.10;;;5.20;;
27833;SDS011;15200;50.570;7.244;2023-06-22T12:30:50;7.22;;;5.30;;
27833;SDS011;15200;50.570;7.244;2023-06-22T12:33:18;10.13;;;5.17;;
27833;SDS011;15200;50.570;7.244;2023-06-22T12:35:45;7.28;;;4.92;;
27833;SDS011;15200;50.570;7.244;2023-06-22T12:38:14;7.75;;;5.67;;
27833;SDS011;15200;50.570;7.244;2023-06-22T12:40:41;6.65;;;5.03;;
27833;SDS011;15200;50.570;7.244;2023-06-22T12:43:09;6.83;;;5.42;;
27833;SDS011;15200;50.570;7.244;2023-06-22T12:45:36;9.45;;;5.00;;
27833;SDS011;15200;50.570;7.244;2023-06-22T12:48:04;7.67;;;5.17;;
27833;SDS011;15200;50.570;7.244;2023-06-22T12:50:31;5.10;;;4.60;;
27833;SDS011;15200;50.570;7.244;2023-06-22T12:52:59;7.50;;;4.87;;
27833;SDS011;15200;50.570;7.244;2023-06-22T12:55:28;7.33;;;4.92;;
27833;SDS011;15200;50.570;7.244;2023-06-22T12:57:55;6.65;;;4.65;;
27833;SDS011;15200;50.570;7.244;2023-06-22T13:00:22;7.03;;;4.70;;
27833;SDS011;15200;50.570;7.244;2023-06-22T13:02:50;5.20;;;3.92;;
27833;SDS011;15200;50.570;7.244;2023-06-22T13:05:17;5.45;;;2.60;;
27833;SDS011;15200;50.570;7.244;2023-06-22T13:07:44;6.92;;;3.08;;
27833;SDS011;15200;50.570;7.244;2023-06-22T13:10:12;4.70;;;3.05;;
27833;SDS011;15200;50.570;7.244;2023-06-22T13:12:39;5.97;;;3.00;;
27833;SDS011;15200;50.570;7.244;2023-06-22T13:15:06;4.72;;;3.65;;
27833;SDS011;15200;50.570;7.244;2023-06-22T13:17:34;4.12;;;2.70;;
27833;SDS011;15200;50.570;7.244;2023-06-22T13:20:01;4.05;;;2.58;;
27833;SDS011;15200;50.570;7.244;2023-06-22T13:22:30;3.67;;;2.72;;
27833;SDS011;15200;50.570;7.244;2023-06-22T13:24:58;4.00;;;2.90;;
27833;SDS011;15200;50.570;7.244;2023-06-22T13:27:26;5.22;;;3.10;;
27833;SDS011;15200;50.570;7.244;2023-06-22T13:29:54;3.55;;;2.70;;
27833;SDS011;15200;50.570;7.244;2023-06-22T13:32:21;4.65;;;3.05;;
27833;SDS011;15200;50.570;7.244;2023-06-22T13:34:48;3.72;;;2.92;;
27833;SDS011;15200;50.570;7.244;2023-06-22T13:37:16;3.92;;;2.85;;
27833;SDS011;15200;50.570;7.244;2023-06-22T13:39:43;5.70;;;3.50;;
27833;SDS011;15200;50.570;7.244;2023-06-22T13:42:10;5.47;;;3.33;;
27833;SDS011;15200;50.570;7.244;2023-06-22T13:44:38;7.08;;;3.20;;
27833;SDS011;15200;50.570;7.244;2023-06-22T13:47:05;6.58;;;4.40;;
27833;SDS011;15200;50.570;7.244;2023-06-22T13:49:33;4.58;;;3.80;;
27833;SDS011;15200;50.570;7.244;2023-06-22T13:52:00;6.72;;;4.42;;
27833;SDS011;15200;50.570;7.244;2023-06-22T13:54:29;5.35;;;4.53;;
27833;SDS011;15200;50.570;7.244;2023-06-22T13:56:56;7.70;;;5.87;;
27833;SDS011;15200;50.570;7.244;2023-06-22T13:59:24;6.97;;;6.28;;
27833;SDS011;15200;50.570;7.244;2023-06-22T14:01:52;6.58;;;5.92;;
27833;SDS011;15200;50.570;7.244;2023-06-22T14:04:19;9.13;;;7.22;;
27833;SDS011;15200;50.570;7.244;2023-06-22T14:06:47;12.78;;;7.37;;
27833;SDS011;15200;50.570;7.244;2023-06-22T14:09:14;10.93;;;7.12;;
27833;SDS011;15200;50.570;7.244;2023-06-22T14:11:42;7.85;;;7.05;;
27833;SDS011;15200;50.570;7.244;2023-06-22T14:14:09;10.85;;;7.53;;
27833;SDS011;15200;50.570;7.244;2023-06-22T14:16:36;18.73;;;10.28;;
27833;SDS011;15200;50.570;7.244;2023-06-22T14:19:03;14.03;;;9.18;;
27833;SDS011;15200;50.570;7.244;2023-06-22T14:21:31;13.22;;;10.43;;
27833;SDS011;15200;50.570;7.244;2023-06-22T14:23:58;15.53;;;9.63;;
27833;SDS011;15200;50.570;7.244;2023-06-22T14:26:25;18.87;;;11.05;;
27833;SDS011;15200;50.570;7.244;2023-06-22T14:28:53;15.90;;;11.68;;
27833;SDS011;15200;50.570;7.244;2023-06-22T14:31:20;21.77;;;11.68;;
27833;SDS011;15200;50.570;7.244;2023-06-22T14:33:48;18.15;;;11.35;;
27833;SDS011;15200;50.570;7.244;2023-06-22T14:36:16;16.07;;;10.82;;
27833;SDS011;15200;50.570;7.244;2023-06-22T14:38:46;18.87;;;10.10;;
27833;SDS011;15200;50.570;7.244;2023-06-22T14:41:13;14.47;;;9.58;;
27833;SDS011;15200;50.570;7.244;2023-06-22T14:43:44;20.05;;;9.10;;
27833;SDS011;15200;50.570;7.244;2023-06-22T14:46:14;12.82;;;8.43;;
27833;SDS011;15200;50.570;7.244;2023-06-22T14:48:41;12.78;;;8.55;;